Time;durP1;ratioP1;P1;durP2;ratioP2;P2;SDS_P1;SDS_P2;PMS_P1;PMS_P2;Temp;Humidity;BMP_temperature;BMP_pressure;BME280_temperature;BME280_humidity;BME280_pressure;Samples;Min_cycle;Max_cycle;Signal;HPM_P1;HPM_P2
2023/05/05 00:01:07;;;;;;;18.10;7.70;;;;;;;11.28;66.35;101102.20;213725;1289;138415;-89
2023/05/05 00:06:07;;;;;;;18.20;9.00;;;;;;;11.17;66.76;101105.30;214265;1289;137938;-89
2023/05/05 00:11:08;;;;;;;15.60;7.80;;;;;;;11.07;67.28;101105.02;213840;1288;138047;-89
2023/05/05 00:16:08;;;;;;;13.30;6.70;;;;;;;10.98;67.98;101100.73;214360;1288;137829;-88
2023/05/05 00:21:09;;;;;;;17.00;8.00;;;;;;;10.92;68.37;101099.61;214498;1289;138643;-88
2023/05/05 00:26:09;;;;;;;18.10;7.00;;;;;;;10.86;69.13;101099.86;214405;1289;137705;-87
2023/05/05 00:31:10;;;;;;;14.80;6.90;;;;;;;10.81;69.78;101100.70;214080;1290;138037;-87
2023/05/05 00:36:10;;;;;;;14.80;7.10;;;;;;;10.75;70.56;101102.55;214466;1289;138373;-88
2023/05/05 00:41:11;;;;;;;12.90;6.60;;;;;;;10.70;70.74;101107.63;213773;1289;137844;-88
2023/05/05 00:46:26;;;;;;;18.40;7.00;;;;;;;10.65;71.83;101108.86;214423;1288;137779;-88
2023/05/05 00:51:27;;;;;;;16.20;6.30;;;;;;;10.59;72.18;101099.69;213897;1291;138234;-88
2023/05/05 00:56:28;;;;;;;13.30;5.70;;;;;;;10.57;73.04;101093.18;215627;1288;137567;-89
2023/05/05 01:01:29;;;;;;;14.50;5.70;;;;;;;10.54;73.69;101088.80;214473;1291;138484;-90
2023/05/05 01:06:32;;;;;;;13.50;5.90;;;;;;;10.51;73.39;101085.34;214472;1291;138531;-89
2023/05/05 01:11:45;;;;;;;13.60;5.20;;;;;;;10.49;74.00;101086.88;214173;1289;139006;-88
2023/05/05 01:16:56;;;;;;;15.90;6.00;;;;;;;10.46;74.34;101084.61;214342;1289;138631;-88
2023/05/05 01:22:01;;;;;;;13.60;5.90;;;;;;;10.43;74.42;101090.13;213930;1289;139209;-87
2023/05/05 01:27:17;;;;;;;14.90;5.40;;;;;;;10.41;74.29;101085.20;214370;1288;110168;-87
2023/05/05 01:32:30;;;;;;;16.00;6.00;;;;;;;10.39;74.67;101087.05;213846;1288;138655;-88
2023/05/05 01:38:01;;;;;;;12.80;5.80;;;;;;;10.32;74.94;101089.48;214244;1291;138453;-89
2023/05/05 01:43:04;;;;;;;17.20;5.50;;;;;;;10.29;74.74;101095.14;213803;1291;138855;-87
2023/05/05 01:48:06;;;;;;;14.00;5.20;;;;;;;10.25;74.66;101097.12;214302;1289;139079;-87
2023/05/05 01:53:08;;;;;;;14.10;5.40;;;;;;;10.18;74.76;101090.98;213927;1291;140125;-90
2023/05/05 01:58:11;;;;;;;16.90;7.10;;;;;;;10.09;75.03;101092.64;214369;1289;139064;-87
2023/05/05 02:03:14;;;;;;;13.60;4.90;;;;;;;10.00;75.16;101093.75;214887;1288;139935;-88
2023/05/05 02:08:15;;;;;;;14.30;4.90;;;;;;;9.91;75.33;101095.64;214778;1289;139117;-88
2023/05/05 02:13:17;;;;;;;12.20;5.30;;;;;;;9.81;74.93;101095.63;213831;1288;138033;-88
2023/05/05 02:18:19;;;;;;;12.70;5.20;;;;;;;9.71;74.50;101088.61;214830;1288;138164;-88
2023/05/05 02:23:20;;;;;;;14.30;5.00;;;;;;;9.64;74.81;101087.02;213867;1288;138797;-88
2023/05/05 02:28:30;;;;;;;11.90;4.50;;;;;;;9.57;75.06;101086.93;214401;1289;138246;-88
2023/05/05 02:33:33;;;;;;;13.00;5.20;;;;;;;9.52;74.91;101086.80;213826;1292;138090;-87
2023/05/05 02:38:39;;;;;;;11.80;4.70;;;;;;;9.47;74.87;101086.67;214696;1289;138443;-89
2023/05/05 02:43:42;;;;;;;8.40;4.00;;;;;;;9.41;75.01;101082.28;214476;1291;138708;-89
2023/05/05 02:48:43;;;;;;;11.90;4.50;;;;;;;9.34;75.14;101091.05;214290;1288;138253;-89
2023/05/05 02:53:45;;;;;;;12.80;4.60;;;;;;;9.28;75.26;101094.89;213855;1288;138783;-87
2023/05/05 02:59:05;;;;;;;12.40;4.80;;;;;;;9.21;75.92;101103.25;214292;1289;138201;-89
2023/05/05 03:04:13;;;;;;;10.90;4.10;;;;;;;9.16;76.25;101101.23;213431;1288;138631;-85
2023/05/05 03:09:35;;;;;;;15.20;4.60;;;;;;;9.12;76.11;101103.30;214032;1293;138291;-87
2023/05/05 03:14:40;;;;;;;12.00;5.00;;;;;;;9.05;76.63;101107.89;214430;1288;97811;-88
2023/05/05 03:19:42;;;;;;;11.50;4.00;;;;;;;9.00;76.66;101111.76;213915;1289;138987;-88
2023/05/05 03:24:49;;;;;;;14.60;5.60;;;;;;;8.95;76.97;101108.48;214377;1292;138669;-88
2023/05/05 03:29:49;;;;;;;;;;;;;;;8.92;77.22;101110.76;213838;1288;139306;-87
2023/05/05 03:34:50;;;;;;;11.30;4.00;;;;;;;8.90;77.56;101106.44;214362;1289;124645;-87
2023/05/05 03:39:51;;;;;;;12.10;3.80;;;;;;;8.87;78.08;101100.81;214033;1289;138561;-88
2023/05/05 03:44:52;;;;;;;10.20;4.20;;;;;;;8.84;77.74;101099.77;215002;1289;96711;-88
2023/05/05 03:49:53;;;;;;;12.00;4.30;;;;;;;8.82;78.69;101104.64;213896;1289;138370;-86
2023/05/05 03:54:53;;;;;;;9.20;3.90;;;;;;;8.80;79.26;101099.73;214283;1289;139751;-87
2023/05/05 03:59:54;;;;;;;12.20;4.20;;;;;;;8.81;79.24;101103.91;213883;1288;138653;-88
2023/05/05 04:04:54;;;;;;;10.00;4.10;;;;;;;8.83;79.21;101101.70;214361;1289;138845;-87
2023/05/05 04:09:56;;;;;;;12.40;3.50;;;;;;;8.85;79.68;101104.73;214564;1285;138312;-88
2023/05/05 04:14:56;;;;;;;9.20;3.60;;;;;;;8.86;79.60;101113.80;215338;1284;96624;-88
2023/05/05 04:19:57;;;;;;;13.20;4.50;;;;;;;8.89;79.56;101114.27;214893;1286;502262;-89
2023/05/05 04:24:57;;;;;;;9.50;3.70;;;;;;;8.92;79.56;101115.21;216064;1285;138558;-90
2023/05/05 04:29:58;;;;;;;12.00;3.80;;;;;;;8.94;79.93;101116.23;214907;1285;138262;-88
2023/05/05 04:35:02;;;;;;;10.80;4.20;;;;;;;8.97;79.98;101126.11;215088;1285;138863;-89
2023/05/05 04:40:03;;;;;;;11.90;3.90;;;;;;;8.99;79.87;101126.09;214473;1285;138450;-89
2023/05/05 04:45:04;;;;;;;10.90;3.80;;;;;;;9.04;80.11;101130.48;215190;1285;98026;-89
2023/05/05 04:50:06;;;;;;;11.10;4.40;;;;;;;9.05;80.26;101123.44;214439;1284;138240;-88
2023/05/05 04:55:07;;;;;;;11.50;3.80;;;;;;;9.08;80.46;101126.73;215246;1287;138033;-87
2023/05/05 05:00:08;;;;;;;12.40;4.60;;;;;;;9.11;80.23;101132.46;214596;1285;139009;-90
2023/05/05 05:05:09;;;;;;;9.00;4.10;;;;;;;9.13;80.56;101138.42;215032;1284;138347;-90
2023/05/05 05:10:10;;;;;;;13.00;5.10;;;;;;;9.17;80.39;101142.76;214824;1287;138135;-89
2023/05/05 05:15:12;;;;;;;9.90;4.00;;;;;;;9.22;80.17;101148.55;215265;1285;96672;-93
2023/05/05 05:20:12;;;;;;;11.60;4.20;;;;;;;9.30;80.15;101153.73;214324;1287;138192;-86
2023/05/05 05:25:13;;;;;;;9.30;3.70;;;;;;;9.38;80.10;101153.37;215555;1287;138013;-81
2023/05/05 05:30:13;;;;;;;14.50;4.40;;;;;;;9.42;80.03;101159.23;215110;1286;138217;-83
2023/05/05 05:35:14;;;;;;;11.00;4.20;;;;;;;9.53;79.95;101178.14;215086;1285;138539;-81
2023/05/05 05:40:15;;;;;;;13.00;4.00;;;;;;;9.66;79.87;101175.66;214512;1285;138249;-81
2023/05/05 05:45:15;;;;;;;9.70;4.30;;;;;;;9.80;79.31;101182.14;215599;1287;96601;-81
2023/05/05 05:50:16;;;;;;;8.50;3.50;;;;;;;9.93;79.03;101181.94;214962;1287;137841;-80
2023/05/05 05:55:16;;;;;;;14.50;4.20;;;;;;;10.10;78.34;101179.29;215719;1287;137814;-81
2023/05/05 06:00:17;;;;;;;10.10;4.00;;;;;;;10.27;77.81;101180.46;215439;1287;138976;-81
2023/05/05 06:05:17;;;;;;;9.00;3.90;;;;;;;10.45;77.65;101179.81;216372;1285;139231;-82
2023/05/05 06:10:18;;;;;;;10.30;4.00;;;;;;;10.65;77.50;101176.11;215473;1283;139137;-81
2023/05/05 06:15:18;;;;;;;15.70;4.30;;;;;;;10.84;76.95;101184.88;215809;1284;96601;-81
2023/05/05 06:20:19;;;;;;;10.40;4.10;;;;;;;11.08;76.92;101186.18;214659;1287;138611;-82
2023/05/05 06:25:20;;;;;;;9.50;4.60;;;;;;;11.29;75.99;101191.20;214991;1287;138603;-82
2023/05/05 06:30:20;;;;;;;9.70;4.10;;;;;;;11.42;74.79;101184.66;215047;1287;138816;-81
2023/05/05 06:35:21;;;;;;;11.00;4.00;;;;;;;11.51;74.31;101189.33;215153;1285;138485;-82
2023/05/05 06:40:21;;;;;;;9.30;4.30;;;;;;;11.59;74.21;101184.08;214591;1287;139652;-80
2023/05/05 06:45:22;;;;;;;13.50;4.70;;;;;;;11.77;74.07;101188.60;215233;1287;96889;-82
2023/05/05 06:50:22;;;;;;;9.50;4.20;;;;;;;11.88;73.71;101185.41;214537;1283;138653;-81
2023/05/05 06:55:23;;;;;;;12.70;5.10;;;;;;;12.00;72.76;101194.28;215042;1287;138689;-79
2023/05/05 07:00:24;;;;;;;13.80;5.10;;;;;;;12.09;72.87;101192.10;214503;1285;139224;-81
2023/05/05 07:05:24;;;;;;;9.70;4.40;;;;;;;12.26;72.14;101190.88;215276;1285;138514;-80
2023/05/05 07:10:26;;;;;;;8.00;3.80;;;;;;;12.44;71.84;101189.99;215036;1286;139217;-81
2023/05/05 07:15:27;;;;;;;12.00;4.70;;;;;;;12.54;70.67;101189.84;215243;1285;103098;-81
2023/05/05 07:20:28;;;;;;;25.00;5.30;;;;;;;12.70;70.90;101192.59;214553;1286;138993;-81
2023/05/05 07:25:28;;;;;;;9.90;4.70;;;;;;;12.99;70.98;101187.98;214770;1287;138431;-82
2023/05/05 07:30:29;;;;;;;10.30;4.40;;;;;;;13.19;69.20;101190.30;214616;1285;139230;-81
2023/05/05 07:35:29;;;;;;;11.70;3.70;;;;;;;13.31;69.28;101186.80;215061;1285;139042;-81
2023/05/05 07:40:32;;;;;;;11.70;5.00;;;;;;;13.49;69.22;101184.95;214247;1284;139027;-82
2023/05/05 07:45:33;;;;;;;8.80;4.30;;;;;;;13.58;67.73;101184.90;215896;1285;96552;-79
2023/05/05 07:50:33;;;;;;;12.20;4.70;;;;;;;13.71;68.43;101187.34;215104;1287;138764;-83
2023/05/05 07:55:34;;;;;;;14.60;4.90;;;;;;;13.88;67.92;101189.26;215207;1287;138720;-82
2023/05/05 08:00:34;;;;;;;12.80;5.20;;;;;;;13.96;67.18;101188.47;214464;1288;138720;-81
2023/05/05 08:05:35;;;;;;;11.80;4.50;;;;;;;13.98;66.14;101199.08;215022;1286;138424;-81
2023/05/05 08:10:35;;;;;;;10.10;4.70;;;;;;;13.93;66.07;101202.58;214494;1286;138243;-81
2023/05/05 08:15:35;;;;;;;11.50;4.90;;;;;;;14.03;65.84;101213.52;215044;1288;138112;-82
2023/05/05 08:20:36;;;;;;;9.70;4.50;;;;;;;14.09;65.15;101211.29;214640;1287;139446;-81
2023/05/05 08:25:37;;;;;;;12.30;4.50;;;;;;;14.25;65.45;101220.07;215032;1289;137838;-81
2023/05/05 08:30:37;;;;;;;11.50;4.90;;;;;;;14.54;65.15;101224.04;214473;1284;138593;-83
2023/05/05 08:35:38;;;;;;;11.90;4.40;;;;;;;14.68;64.13;101225.34;214989;1283;137928;-82
2023/05/05 08:40:39;;;;;;;12.20;4.40;;;;;;;14.70;63.93;101220.83;214742;1285;138557;-81
2023/05/05 08:45:41;;;;;;;12.70;5.50;;;;;;;14.87;63.09;101230.69;215362;1288;138038;-82
2023/05/05 08:50:46;;;;;;;11.30;5.00;;;;;;;14.96;62.85;101226.70;215408;1288;138349;-82
2023/05/05 08:55:50;;;;;;;10.40;4.40;;;;;;;15.16;62.84;101222.94;215874;1288;138414;-83
2023/05/05 09:00:51;;;;;;;9.40;4.10;;;;;;;15.35;62.90;101223.20;214623;1283;139072;-83
2023/05/05 09:05:52;;;;;;;12.60;4.50;;;;;;;15.49;61.53;101224.70;215061;1283;139095;-84
2023/05/05 09:10:53;;;;;;;11.30;4.70;;;;;;;15.58;60.91;101226.86;214285;1287;138452;-85
2023/05/05 09:15:54;;;;;;;13.30;5.00;;;;;;;15.88;61.71;101218.06;215829;1288;138233;-87
2023/05/05 09:20:54;;;;;;;10.70;4.30;;;;;;;16.37;59.94;101222.74;214714;1284;139006;-85
2023/05/05 09:26:03;;;;;;;11.50;4.60;;;;;;;16.65;58.52;101220.84;215567;1284;138820;-84
2023/05/05 09:31:14;;;;;;;10.60;4.30;;;;;;;16.93;58.17;101218.73;215450;1287;138213;-86
2023/05/05 09:36:15;;;;;;;9.20;3.90;;;;;;;17.30;56.84;101220.92;215948;1283;138521;-87
2023/05/05 09:41:35;;;;;;;10.30;4.60;;;;;;;17.60;55.97;101222.18;215105;1284;137976;-87
2023/05/05 09:46:36;;;;;;;11.40;3.90;;;;;;;17.83;54.72;101226.91;214886;1287;138009;-85
2023/05/05 09:51:36;;;;;;;11.20;4.10;;;;;;;17.91;54.14;101228.30;214528;1287;138973;-84
2023/05/05 09:56:40;;;;;;;10.70;4.50;;;;;;;18.26;55.72;101230.21;215103;1287;96521;-83
2023/05/05 10:01:42;;;;;;;7.30;3.80;;;;;;;18.83;55.64;101234.20;214768;1285;138435;-85
2023/05/05 10:06:45;;;;;;;8.70;3.80;;;;;;;19.26;52.72;101240.86;215176;1288;137992;-85
2023/05/05 10:11:46;;;;;;;11.80;5.30;;;;;;;19.46;52.23;101240.14;214663;1284;138551;-85
2023/05/05 10:16:49;;;;;;;10.20;4.40;;;;;;;19.69;50.18;101241.15;215068;1284;138087;-85
2023/05/05 10:21:58;;;;;;;8.10;4.00;;;;;;;19.87;49.56;101240.81;214491;1284;138488;-85
2023/05/05 10:27:03;;;;;;;9.40;4.70;;;;;;;20.13;49.38;101242.61;215183;1284;110464;-86
2023/05/05 10:32:12;;;;;;;11.40;4.90;;;;;;;20.43;49.37;101226.16;214821;1284;139474;-87
2023/05/05 10:37:13;;;;;;;15.30;5.50;;;;;;;20.67;47.49;101217.67;215311;1284;138790;-87
2023/05/05 10:42:14;;;;;;;9.30;3.90;;;;;;;20.91;47.18;101210.78;214558;1284;138161;-86
2023/05/05 10:47:16;;;;;;;8.00;4.20;;;;;;;21.19;47.00;101207.11;215095;1287;137964;-84
2023/05/05 10:52:31;;;;;;;11.70;4.40;;;;;;;21.37;45.17;101202.69;214276;1284;137752;-84
2023/05/05 10:57:38;;;;;;;13.20;4.70;;;;;;;21.50;44.98;101193.10;215093;1287;96412;-87
2023/05/05 11:02:39;;;;;;;8.60;4.80;;;;;;;21.60;44.76;101183.23;214913;1284;138447;-85
2023/05/05 11:07:41;;;;;;;10.90;5.10;;;;;;;21.94;45.70;101182.46;215136;1285;137715;-88
2023/05/05 11:13:07;;;;;;;13.00;4.80;;;;;;;22.28;43.95;101172.02;215065;1285;138139;-87
2023/05/05 11:18:27;;;;;;;;;;;;;;;22.34;43.58;101164.98;215558;1284;137985;-86
2023/05/05 11:23:28;;;;;;;10.10;4.80;;;;;;;22.10;43.09;101152.92;214761;1287;124455;-87
2023/05/05 11:28:30;;;;;;;10.30;4.80;;;;;;;22.10;43.64;101148.91;215365;1286;138466;-86
2023/05/05 11:33:37;;;;;;;10.70;5.20;;;;;;;22.27;41.82;101160.27;214763;1284;138253;-87
2023/05/05 11:38:38;;;;;;;12.70;5.30;;;;;;;22.00;41.66;101156.59;215203;1285;138180;-88
2023/05/05 11:43:42;;;;;;;11.40;4.80;;;;;;;21.82;42.49;101151.52;215285;1285;139438;-85
2023/05/05 11:48:52;;;;;;;10.90;4.80;;;;;;;22.09;42.80;101157.90;215465;1285;138006;-85
2023/05/05 11:53:53;;;;;;;13.70;5.30;;;;;;;22.29;42.09;101155.65;214949;1283;140557;-86
2023/05/05 11:59:20;;;;;;;11.30;4.80;;;;;;;22.38;41.18;101155.98;215655;1284;138080;-87
2023/05/05 12:04:21;;;;;;;9.70;4.70;;;;;;;22.31;41.18;101158.95;215287;1283;138132;-86
2023/05/05 12:09:22;;;;;;;13.70;5.00;;;;;;;22.39;42.17;101157.00;215737;1284;139877;-83
2023/05/05 12:14:24;;;;;;;13.80;4.70;;;;;;;22.01;41.76;101162.59;216003;1284;138442;-84
2023/05/05 12:19:28;;;;;;;9.70;4.30;;;;;;;22.03;43.11;101162.31;215658;1283;138562;-84
2023/05/05 12:24:30;;;;;;;11.20;4.30;;;;;;;22.37;42.97;101157.36;216133;1284;137807;-85
2023/05/05 12:29:30;;;;;;;13.30;4.80;;;;;;;22.35;42.28;101158.87;215350;1287;138617;-83
2023/05/05 12:34:31;;;;;;;12.20;4.70;;;;;;;22.24;42.26;101158.67;215920;1287;138557;-83
2023/05/05 12:39:35;;;;;;;11.60;5.20;;;;;;;22.10;42.44;101154.52;215520;1283;138709;-86
2023/05/05 12:44:39;;;;;;;12.10;4.70;;;;;;;21.70;41.53;101155.55;215696;1284;138147;-85
2023/05/05 12:49:49;;;;;;;11.60;4.60;;;;;;;21.48;42.05;101158.52;215336;1286;138396;-85
2023/05/05 12:54:59;;;;;;;11.70;4.30;;;;;;;21.40;41.83;101154.20;216098;1287;138217;-84
2023/05/05 13:00:12;;;;;;;14.80;4.60;;;;;;;21.07;42.27;101151.78;216019;1285;138047;-84
2023/05/05 13:05:13;;;;;;;9.00;4.40;;;;;;;21.02;42.60;101146.30;216315;1284;138295;-83
2023/05/05 13:10:13;;;;;;;12.20;4.40;;;;;;;20.92;43.77;101141.52;215621;1285;138588;-84
2023/05/05 13:15:13;;;;;;;11.40;4.40;;;;;;;20.86;43.49;101137.86;215846;1285;96687;-84
2023/05/05 13:20:14;;;;;;;12.40;4.70;;;;;;;20.78;44.02;101136.17;215698;1285;139709;-83
2023/05/05 13:25:15;;;;;;;12.50;5.00;;;;;;;20.56;43.64;101129.80;216066;1285;137833;-83
2023/05/05 13:30:15;;;;;;;13.10;4.90;;;;;;;20.51;43.79;101125.59;215634;1285;138170;-86
2023/05/05 13:35:16;;;;;;;13.70;4.70;;;;;;;20.47;43.39;101121.10;216167;1284;138575;-83
2023/05/05 13:40:17;;;;;;;11.50;4.80;;;;;;;20.32;44.35;101117.06;215539;1283;138262;-83
2023/05/05 13:45:18;;;;;;;13.90;5.30;;;;;;;20.42;44.31;101113.05;216079;1283;110819;-82
2023/05/05 13:50:19;;;;;;;10.20;4.80;;;;;;;20.34;44.71;101110.89;215370;1283;138895;-83
2023/05/05 13:55:19;;;;;;;13.20;4.60;;;;;;;19.94;44.54;101110.59;215856;1283;138351;-84
2023/05/05 14:00:20;;;;;;;10.00;4.40;;;;;;;19.44;45.23;101099.95;215606;1284;138186;-84
2023/05/05 14:05:22;;;;;;;10.20;4.90;;;;;;;19.11;45.66;101101.48;216110;1283;137982;-83
2023/05/05 14:10:24;;;;;;;10.70;4.90;;;;;;;18.82;46.54;101098.18;215411;1283;140010;-85
2023/05/05 14:15:25;;;;;;;10.90;5.00;;;;;;;18.74;46.62;101095.97;216028;1283;96699;-84
2023/05/05 14:20:26;;;;;;;10.30;4.80;;;;;;;18.58;47.24;101094.15;215506;1283;138555;-85
2023/05/05 14:25:26;;;;;;;9.40;4.30;;;;;;;18.54;46.94;101089.82;215980;1284;138308;-84
2023/05/05 14:30:26;;;;;;;9.10;4.30;;;;;;;18.39;45.71;101090.61;215434;1287;138371;-83
2023/05/05 14:35:27;;;;;;;12.90;4.30;;;;;;;18.31;45.51;101090.19;215663;1283;137879;-83
2023/05/05 14:40:28;;;;;;;13.00;4.10;;;;;;;18.30;45.35;101082.48;215217;1287;138335;-83
2023/05/05 14:45:28;;;;;;;8.40;3.80;;;;;;;18.33;45.11;101088.36;216082;1284;96611;-83
2023/05/05 14:50:29;;;;;;;14.10;4.10;;;;;;;18.33;46.22;101076.73;214979;1284;138458;-82
2023/05/05 14:55:29;;;;;;;9.30;4.30;;;;;;;18.19;47.02;101068.09;215703;1284;138236;-84
2023/05/05 15:00:30;;;;;;;9.10;3.90;;;;;;;18.15;46.79;101076.96;215147;1284;137824;-84
2023/05/05 15:05:34;;;;;;;10.90;3.90;;;;;;;18.02;47.31;101073.89;215734;1284;137960;-82
2023/05/05 15:10:34;;;;;;;13.20;4.50;;;;;;;17.88;46.92;101070.59;214836;1283;139009;-82
2023/05/05 15:15:35;;;;;;;10.00;3.80;;;;;;;17.60;47.28;101070.11;215589;1284;97945;-83
2023/05/05 15:20:35;;;;;;;8.40;3.70;;;;;;;17.39;47.74;101068.49;215219;1284;137704;-83
2023/05/05 15:25:35;;;;;;;10.70;4.70;;;;;;;17.29;48.57;101065.20;215473;1284;137646;-83
2023/05/05 15:30:36;;;;;;;10.00;3.60;;;;;;;17.25;48.43;101068.89;215199;1284;138050;-84
2023/05/05 15:35:37;;;;;;;9.70;3.60;;;;;;;17.19;48.28;101067.25;215794;1284;138135;-82
2023/05/05 15:40:37;;;;;;;10.00;4.40;;;;;;;17.03;47.79;101076.24;215326;1284;138023;-86
2023/05/05 15:45:40;;;;;;;9.40;4.10;;;;;;;16.73;48.04;101081.04;216133;1284;97933;-82
2023/05/05 15:50:40;;;;;;;12.10;4.80;;;;;;;16.49;48.66;101079.61;215334;1284;137400;-84
2023/05/05 15:55:41;;;;;;;10.70;3.80;;;;;;;16.30;49.05;101081.14;215958;1283;138344;-84
2023/05/05 16:00:41;;;;;;;8.00;4.00;;;;;;;16.15;49.44;101077.27;215251;1285;138541;-84
2023/05/05 16:05:42;;;;;;;11.40;3.90;;;;;;;16.09;50.08;101075.36;215979;1285;138134;-85
2023/05/05 16:10:42;;;;;;;9.50;3.60;;;;;;;15.96;50.13;101074.02;215561;1284;138225;-82
2023/05/05 16:15:43;;;;;;;9.90;3.70;;;;;;;15.83;50.62;101065.39;215982;1285;137767;-81
2023/05/05 16:20:44;;;;;;;13.90;5.50;;;;;;;15.78;51.26;101059.92;215236;1285;308374;-83
2023/05/05 16:25:44;;;;;;;9.30;4.30;;;;;;;15.65;51.26;101063.73;216210;1284;139004;-83
2023/05/05 16:30:45;;;;;;;9.50;3.50;;;;;;;15.45;51.38;101060.70;215474;1284;138123;-83
2023/05/05 16:35:45;;;;;;;13.50;4.50;;;;;;;15.26;51.99;101056.75;215885;1284;138395;-82
2023/05/05 16:40:46;;;;;;;8.70;3.60;;;;;;;15.08;52.37;101048.38;215188;1284;138083;-83
2023/05/05 16:45:46;;;;;;;8.10;3.70;;;;;;;14.96;52.99;101047.71;215927;1284;138653;-84
2023/05/05 16:50:47;;;;;;;8.70;3.60;;;;;;;14.84;53.14;101051.32;215265;1287;137969;-83
2023/05/05 16:55:51;;;;;;;8.70;4.20;;;;;;;14.73;53.51;101050.95;215967;1284;137790;-85
2023/05/05 17:00:52;;;;;;;10.70;4.00;;;;;;;14.62;53.15;101049.96;214992;1284;138085;-85
2023/05/05 17:05:53;;;;;;;11.90;4.70;;;;;;;14.50;53.58;101047.92;215572;1287;138033;-85
2023/05/05 17:10:53;;;;;;;8.70;3.40;;;;;;;14.41;53.79;101049.77;215081;1284;138540;-86
2023/05/05 17:15:55;;;;;;;10.70;3.50;;;;;;;14.36;54.59;101047.69;215864;1284;138363;-85
2023/05/05 17:20:56;;;;;;;11.20;3.40;;;;;;;14.30;54.29;101055.17;215587;1287;138156;-85
2023/05/05 17:25:58;;;;;;;10.90;4.00;;;;;;;14.19;54.61;101053.10;215955;1284;138790;-84
2023/05/05 17:30:58;;;;;;;7.40;3.10;;;;;;;14.06;54.87;101059.96;215824;1284;138103;-84
2023/05/05 17:35:59;;;;;;;8.10;3.20;;;;;;;13.97;55.32;101063.14;216059;1284;137904;-81
2023/05/05 17:40:59;;;;;;;9.30;3.00;;;;;;;13.86;55.50;101067.88;215736;1287;138002;-87
2023/05/05 17:46:00;;;;;;;5.80;2.60;;;;;;;13.75;55.65;101081.63;216239;1284;138909;-84
2023/05/05 17:51:01;;;;;;;11.30;3.70;;;;;;;13.62;55.33;101080.55;215355;1287;137703;-85
2023/05/05 17:56:01;;;;;;;8.80;3.60;;;;;;;13.47;55.44;101075.68;215985;1283;138267;-86
2023/05/05 18:01:01;;;;;;;6.80;2.60;;;;;;;13.36;55.86;101076.90;215462;1283;140359;-87
2023/05/05 18:06:02;;;;;;;7.70;3.00;;;;;;;13.21;56.35;101078.41;216259;1284;138314;-85
2023/05/05 18:11:03;;;;;;;7.20;3.30;;;;;;;13.07;56.63;101081.58;215731;1284;138184;-85
2023/05/05 18:16:04;;;;;;;9.70;3.30;;;;;;;12.95;57.06;101081.73;215930;1284;138143;-85
2023/05/05 18:21:05;;;;;;;10.10;3.60;;;;;;;12.82;57.62;101077.77;215571;1287;137545;-85
2023/05/05 18:26:06;;;;;;;8.10;3.20;;;;;;;12.72;58.09;101084.89;215904;1287;138884;-86
2023/05/05 18:31:07;;;;;;;7.60;3.00;;;;;;;12.61;58.79;101087.98;215139;1287;138575;-86
2023/05/05 18:36:09;;;;;;;10.10;3.90;;;;;;;12.50;59.28;101089.19;215786;1284;138343;-85
2023/05/05 18:41:09;;;;;;;9.90;4.00;;;;;;;12.39;59.84;101090.05;215278;1284;138735;-84
2023/05/05 18:46:12;;;;;;;10.10;3.80;;;;;;;12.30;60.28;101092.84;215930;1284;137853;-85
2023/05/05 18:51:14;;;;;;;10.00;3.80;;;;;;;12.21;60.82;101090.19;215545;1284;137809;-86
2023/05/05 18:56:15;;;;;;;8.30;3.90;;;;;;;12.13;61.28;101082.34;215667;1287;138100;-85
2023/05/05 19:01:16;;;;;;;11.40;4.20;;;;;;;12.06;61.59;101079.14;215517;1284;137963;-85
2023/05/05 19:06:19;;;;;;;9.70;4.00;;;;;;;11.98;62.10;101078.63;215731;1287;137975;-86
2023/05/05 19:11:20;;;;;;;12.70;4.20;;;;;;;11.90;62.34;101084.80;215445;1284;137857;-87
2023/05/05 19:16:21;;;;;;;9.70;4.00;;;;;;;11.82;62.68;101080.81;215869;1284;138666;-87
2023/05/05 19:21:22;;;;;;;13.80;4.10;;;;;;;11.76;63.44;101081.20;215277;1285;138049;-88
2023/05/05 19:26:25;;;;;;;9.70;4.70;;;;;;;11.72;63.41;101081.59;215837;1284;137937;-87
2023/05/05 19:31:26;;;;;;;11.00;4.40;;;;;;;11.66;64.19;101079.30;214963;1287;138012;-85
2023/05/05 19:36:27;;;;;;;14.50;4.70;;;;;;;11.60;64.48;101078.78;215546;1285;137998;-87
2023/05/05 19:41:31;;;;;;;14.00;5.00;;;;;;;11.54;64.80;101079.51;215197;1285;138681;-87
2023/05/05 19:46:33;;;;;;;10.40;4.70;;;;;;;11.48;65.27;101078.77;215974;1284;138945;-87
2023/05/05 19:51:35;;;;;;;12.80;5.20;;;;;;;11.42;65.55;101084.74;215292;1287;138477;-86
2023/05/05 19:56:36;;;;;;;16.50;5.20;;;;;;;11.37;65.66;101088.20;215578;1284;137736;-83
2023/05/05 20:01:37;;;;;;;11.20;5.20;;;;;;;11.32;65.95;101080.92;215232;1285;138487;-84
2023/05/05 20:06:39;;;;;;;12.50;5.20;;;;;;;11.27;66.37;101084.70;215646;1284;139294;-85
2023/05/05 20:11:40;;;;;;;12.70;4.70;;;;;;;11.21;66.76;101084.89;215220;1284;138509;-85
2023/05/05 20:16:42;;;;;;;10.90;5.20;;;;;;;11.14;66.81;101089.02;215281;1287;138051;-83
2023/05/05 20:21:45;;;;;;;10.30;5.10;;;;;;;11.09;67.38;101082.46;215153;1287;138268;-87
2023/05/05 20:26:45;;;;;;;11.10;5.00;;;;;;;11.04;67.60;101081.42;215966;1285;96702;-87
2023/05/05 20:31:46;;;;;;;13.10;5.20;;;;;;;10.98;67.87;101080.51;215010;1287;139785;-85
2023/05/05 20:36:48;;;;;;;12.20;5.30;;;;;;;10.92;68.07;101079.46;215771;1285;138545;-88
2023/05/05 20:41:48;;;;;;;11.40;5.00;;;;;;;10.88;68.33;101080.61;216097;1284;138990;-87
2023/05/05 20:46:49;;;;;;;12.50;5.10;;;;;;;10.83;68.79;101081.25;216702;1284;138664;-90
2023/05/05 20:51:50;;;;;;;9.50;4.50;;;;;;;10.79;69.20;101086.96;215951;1284;138310;-88
2023/05/05 20:56:51;;;;;;;14.60;4.80;;;;;;;10.74;69.24;101083.01;215950;1284;96572;-90
2023/05/05 21:01:53;;;;;;;12.60;5.80;;;;;;;10.69;69.47;101082.04;215859;1284;138086;-92
2023/05/05 21:06:56;;;;;;;11.80;5.40;;;;;;;10.62;69.86;101086.55;216231;1284;138144;-88
2023/05/05 21:11:56;;;;;;;12.90;5.90;;;;;;;10.55;70.40;101079.08;215607;1286;138208;-89
2023/05/05 21:16:57;;;;;;;11.00;5.00;;;;;;;10.48;70.55;101077.89;215774;1284;138420;-91
2023/05/05 21:22:00;;;;;;;12.60;5.30;;;;;;;10.41;70.88;101075.23;215303;1285;138443;-89
2023/05/05 21:27:01;;;;;;;13.10;5.90;;;;;;;10.34;71.66;101068.71;216646;1284;96540;-90
2023/05/05 21:32:11;;;;;;;12.20;5.10;;;;;;;10.23;71.83;101065.61;216130;1284;138154;-88
2023/05/05 21:37:12;;;;;;;12.90;5.60;;;;;;;10.09;72.47;101059.09;216212;1284;138690;-94
2023/05/05 21:42:13;;;;;;;12.10;5.20;;;;;;;9.97;72.97;101053.59;215884;1287;138759;-91
2023/05/05 21:47:13;;;;;;;12.80;4.40;;;;;;;9.80;72.27;101042.83;216179;1284;140550;-89
2023/05/05 21:52:14;;;;;;;15.30;5.20;;;;;;;9.61;72.91;101040.55;215898;1284;138428;-90
2023/05/05 21:57:15;;;;;;;14.60;6.30;;;;;;;9.46;72.79;101040.56;216339;1283;97951;-93
2023/05/05 22:02:15;;;;;;;11.00;5.10;;;;;;;9.33;73.12;101037.66;215159;1285;138277;-86
2023/05/05 22:07:16;;;;;;;16.30;5.60;;;;;;;9.22;73.18;101042.94;214500;1285;138327;-86
2023/05/05 22:12:16;;;;;;;18.30;6.30;;;;;;;9.10;73.32;101039.55;214112;1287;139027;-85
2023/05/05 22:17:17;;;;;;;12.30;5.30;;;;;;;8.98;73.71;101034.45;215385;1287;138329;-89
2023/05/05 22:22:17;;;;;;;11.60;5.10;;;;;;;8.88;74.13;101035.27;215243;1284;138425;-88
2023/05/05 22:27:18;;;;;;;17.10;5.30;;;;;;;8.83;74.41;101031.97;215622;1283;96607;-90
2023/05/05 22:32:19;;;;;;;11.80;4.90;;;;;;;8.76;74.75;101023.23;214902;1286;138566;-88
2023/05/05 22:37:19;;;;;;;11.40;5.30;;;;;;;8.69;75.11;101010.65;215618;1285;138948;-88
2023/05/05 22:42:20;;;;;;;11.80;5.30;;;;;;;8.65;75.32;101011.09;215166;1287;138414;-87
2023/05/05 22:47:20;;;;;;;14.90;5.30;;;;;;;8.64;75.62;101012.49;215717;1284;138453;-86